Ukiah, California
Current Conditions -  °F | °C
As of 7:56 PM on Saturday 24 Jan 2015 (Local Time) from KUKI Reporting Station
Clear Clear  
Wind Chill: 13°   Ceiling: Unl
Heat Index: 13°   Visibility: 10mi
Dew Point:   Wind: 3mph
Humidity: 77%   Direction: 310°NW
Pressure: 30.12"   Gusts: NA
Location:  39.15°N, 123.2°W
Report Text: KUKI 250356Z AUTO 31003KT 10SM CLR 13/09 A3012 RMK AO2 SLP197 T01330094
Loading
Personal Weather Stations






























Interactive Weather Map New forecast layout! Learn more

10-Day Weather Forecast

Advertisements
Track Severe Weather on mobile